Time;durP1;ratioP1;P1;durP2;ratioP2;P2;SDS_P1;SDS_P2;PMS_P1;PMS_P2;Temp;Humidity;BMP_temperature;BMP_pressure;BME280_temperature;BME280_humidity;BME280_pressure;Samples;Min_cycle;Max_cycle;Signal;HPM_P1;HPM_P2
2021/07/03 00:00:41;;;;;;;36.20;22.17;;;18.00;82.80;;;;;;5053057;28;20481;-78
2021/07/03 00:03:07;;;;;;;29.90;21.52;;;18.00;82.90;;;;;;5068374;28;20412;-79
2021/07/03 00:05:33;;;;;;;36.42;23.38;;;18.00;82.90;;;;;;5051804;28;20035;-79
2021/07/03 00:07:58;;;;;;;36.00;21.83;;;17.90;82.80;;;;;;5084258;28;20028;-76
2021/07/03 00:10:24;;;;;;;34.97;24.08;;;17.90;82.80;;;;;;5072675;28;20511;-76
2021/07/03 00:12:50;;;;;;;36.83;22.95;;;17.90;82.80;;;;;;5069131;28;20033;-76
2021/07/03 00:15:21;;;;;;;34.10;24.25;;;17.90;82.90;;;;;;5059914;28;20028;-76
2021/07/03 00:17:52;;;;;;;38.13;24.83;;;17.90;83.10;;;;;;5038287;28;20025;-76
2021/07/03 00:20:18;;;;;;;35.10;23.40;;;17.80;83.10;;;;;;5036829;28;20032;-76
2021/07/03 00:22:44;;;;;;;38.97;24.20;;;17.80;83.10;;;;;;5051202;28;20036;-76
2021/07/03 00:25:11;;;;;;;41.47;25.88;;;17.80;83.00;;;;;;5059508;28;20029;-76
2021/07/03 00:27:37;;;;;;;33.70;23.80;;;17.80;82.90;;;;;;5062421;28;20020;-76
2021/07/03 00:30:04;;;;;;;34.30;23.45;;;17.80;83.00;;;;;;5065817;28;20032;-76
2021/07/03 00:32:29;;;;;;;35.03;23.70;;;17.70;83.10;;;;;;5041511;28;20022;-76
2021/07/03 00:34:55;;;;;;;34.28;24.38;;;17.70;83.30;;;;;;5034798;28;20378;-76
2021/07/03 00:37:21;;;;;;;36.20;24.05;;;17.70;83.20;;;;;;5061065;28;20035;-76
2021/07/03 00:39:46;;;;;;;36.03;23.90;;;17.70;83.20;;;;;;5062582;28;20433;-76
2021/07/03 00:42:12;;;;;;;32.70;23.17;;;17.70;83.20;;;;;;5062797;28;20060;-76
2021/07/03 00:44:38;;;;;;;36.38;24.42;;;17.70;83.30;;;;;;5061252;28;20041;-76
2021/07/03 00:47:04;;;;;;;33.90;22.30;;;17.70;83.30;;;;;;5068454;28;20040;-76
2021/07/03 00:49:30;;;;;;;34.80;24.92;;;17.70;83.30;;;;;;5075870;28;20025;-76
2021/07/03 00:51:56;;;;;;;35.00;24.65;;;17.60;83.20;;;;;;5061926;28;20067;-76
2021/07/03 00:54:22;;;;;;;36.63;24.08;;;17.60;83.40;;;;;;5054174;28;20083;-76
2021/07/03 00:57:01;;;;;;;32.42;23.20;;;17.60;83.50;;;;;;5039269;28;20024;-76
2021/07/03 00:59:35;;;;;;;37.10;23.40;;;17.60;83.60;;;;;;5068292;28;20029;-76
2021/07/03 01:02:02;;;;;;;34.28;24.55;;;17.50;83.60;;;;;;5057629;28;20041;-76
2021/07/03 01:04:28;;;;;;;35.75;24.63;;;17.50;83.60;;;;;;5054732;28;20049;-76
2021/07/03 01:06:54;;;;;;;36.28;24.10;;;17.50;83.50;;;;;;5055286;28;20462;-76
2021/07/03 01:09:20;;;;;;;33.88;23.75;;;17.50;83.50;;;;;;5061154;28;20024;-76
2021/07/03 01:11:46;;;;;;;32.35;23.10;;;17.50;83.50;;;;;;5067977;28;20025;-76
2021/07/03 01:14:11;;;;;;;38.15;25.35;;;17.50;83.50;;;;;;5048897;28;20122;-76
2021/07/03 01:16:37;;;;;;;41.75;25.02;;;17.40;84.10;;;;;;5038167;28;20174;-76
2021/07/03 01:19:03;;;;;;;36.78;23.45;;;17.40;84.20;;;;;;5068290;28;20036;-77
2021/07/03 01:21:29;;;;;;;33.05;23.50;;;17.30;83.70;;;;;;5053952;28;20116;-76
2021/07/03 01:23:55;;;;;;;35.45;24.20;;;17.30;83.70;;;;;;5056057;28;20029;-76
2021/07/03 01:26:20;;;;;;;32.92;23.40;;;17.30;83.70;;;;;;5064449;28;20137;-76
2021/07/03 01:28:46;;;;;;;32.35;22.77;;;17.30;83.80;;;;;;5071701;28;20029;-76
2021/07/03 01:31:12;;;;;;;30.85;22.38;;;17.30;83.80;;;;;;5057130;28;20049;-76
2021/07/03 01:33:38;;;;;;;30.80;22.52;;;17.20;83.70;;;;;;5048861;28;20060;-76
2021/07/03 01:36:04;;;;;;;33.85;22.02;;;17.20;83.70;;;;;;5062282;28;20501;-76
2021/07/03 01:38:30;;;;;;;32.83;22.67;;;17.10;83.70;;;;;;5059328;28;20086;-78
2021/07/03 01:40:56;;;;;;;31.48;21.90;;;17.10;83.70;;;;;;5053900;28;20038;-78
2021/07/03 01:43:25;;;;;;;36.45;23.95;;;17.10;83.70;;;;;;5040003;28;20038;-79
2021/07/03 01:45:52;;;;;;;37.17;22.95;;;17.10;83.80;;;;;;5063994;28;20025;-79
2021/07/03 01:48:26;;;;;;;34.63;24.50;;;17.10;83.90;;;;;;5056403;28;20033;-79
2021/07/03 01:50:53;;;;;;;35.58;24.98;;;17.10;84.00;;;;;;5034297;28;20025;-79
2021/07/03 01:53:19;;;;;;;36.75;24.40;;;17.00;84.00;;;;;;5058619;28;20025;-79
2021/07/03 01:55:44;;;;;;;33.60;23.00;;;17.00;84.00;;;;;;5068690;28;20512;-79
2021/07/03 01:58:18;;;;;;;35.45;24.52;;;17.00;84.10;;;;;;5061236;28;20117;-79
2021/07/03 02:00:44;;;;;;;36.85;24.90;;;17.00;84.30;;;;;;5043164;28;20081;-79
2021/07/03 02:03:10;;;;;;;37.17;24.90;;;16.90;84.20;;;;;;5051263;28;20387;-79
2021/07/03 02:05:36;;;;;;;38.10;25.13;;;16.90;84.30;;;;;;5073629;28;20031;-78
2021/07/03 02:08:01;;;;;;;38.67;25.05;;;16.90;84.30;;;;;;5048846;28;20025;-78
2021/07/03 02:10:27;;;;;;;38.15;24.98;;;16.90;84.40;;;;;;5070945;28;20150;-78
2021/07/03 02:12:52;;;;;;;40.67;25.75;;;16.90;84.40;;;;;;5056799;28;20038;-78
2021/07/03 02:15:18;;;;;;;41.80;27.58;;;16.80;84.50;;;;;;5066262;28;20029;-78
2021/07/03 02:17:44;;;;;;;35.83;24.42;;;16.80;84.60;;;;;;5048704;28;20033;-78
2021/07/03 02:20:10;;;;;;;39.08;25.15;;;16.80;84.70;;;;;;5035237;28;20037;-78
2021/07/03 02:22:36;;;;;;;34.33;24.30;;;16.80;84.70;;;;;;5048394;28;20038;-78
2021/07/03 02:25:01;;;;;;;35.22;23.70;;;16.80;84.70;;;;;;5049221;28;20497;-78
2021/07/03 02:27:27;;;;;;;35.92;25.67;;;16.70;84.70;;;;;;5036649;28;20087;-78
2021/07/03 02:29:53;;;;;;;33.15;23.90;;;16.80;84.70;;;;;;5051507;28;20096;-78
2021/07/03 02:32:18;;;;;;;36.58;23.55;;;16.70;84.60;;;;;;5067318;28;20033;-78
2021/07/03 02:34:44;;;;;;;39.45;25.25;;;16.70;84.60;;;;;;5067423;28;20060;-78
2021/07/03 02:37:10;;;;;;;36.00;24.48;;;16.70;84.50;;;;;;5069864;28;20033;-78
2021/07/03 02:39:35;;;;;;;37.38;26.30;;;16.70;84.60;;;;;;5054136;28;20040;-78
2021/07/03 02:42:02;;;;;;;42.08;26.80;;;16.70;84.60;;;;;;5041792;28;20421;-78
2021/07/03 02:44:27;;;;;;;39.05;25.30;;;16.70;84.70;;;;;;5072410;28;20035;-76
2021/07/03 02:46:53;;;;;;;39.13;24.45;;;16.70;84.70;;;;;;5071169;28;20029;-76
2021/07/03 02:49:21;;;;;;;33.95;23.60;;;16.70;84.80;;;;;;5058969;28;20075;-76
2021/07/03 02:51:46;;;;;;;39.28;25.55;;;16.60;84.80;;;;;;5055312;28;20028;-76
2021/07/03 02:54:12;;;;;;;37.22;24.40;;;16.70;84.80;;;;;;5052711;28;20029;-76
2021/07/03 02:56:37;;;;;;;37.20;26.42;;;16.60;84.80;;;;;;5055619;28;20123;-76
2021/07/03 02:59:03;;;;;;;35.30;23.95;;;16.70;84.80;;;;;;5054528;28;20029;-76
2021/07/03 03:01:29;;;;;;;31.38;22.60;;;16.60;84.80;;;;;;5063494;28;20033;-76
2021/07/03 03:03:55;;;;;;;33.83;23.98;;;16.60;84.90;;;;;;5053720;28;20052;-76
2021/07/03 03:06:20;;;;;;;32.20;23.60;;;16.60;84.90;;;;;;5049366;28;20017;-76
2021/07/03 03:08:46;;;;;;;34.92;24.20;;;16.60;84.80;;;;;;5038007;28;20033;-76
2021/07/03 03:11:12;;;;;;;35.42;24.15;;;16.60;84.80;;;;;;5068082;28;20024;-76
2021/07/03 03:13:37;;;;;;;35.70;23.33;;;16.60;84.80;;;;;;5056825;28;20061;-76
2021/07/03 03:16:04;;;;;;;33.47;23.85;;;16.60;84.70;;;;;;5068612;28;20090;-76
2021/07/03 03:18:29;;;;;;;36.80;23.25;;;16.60;84.80;;;;;;5043249;28;20037;-76
2021/07/03 03:20:55;;;;;;;37.83;22.90;;;16.60;84.80;;;;;;5077979;28;20035;-76
2021/07/03 03:23:20;;;;;;;36.40;24.02;;;16.60;84.80;;;;;;5038516;28;20056;-76
2021/07/03 03:25:46;;;;;;;34.90;23.05;;;16.60;84.80;;;;;;5036919;28;20034;-76
2021/07/03 03:28:12;;;;;;;32.15;22.50;;;16.50;84.90;;;;;;5026736;28;20486;-76
2021/07/03 03:30:37;;;;;;;35.20;22.65;;;16.50;84.90;;;;;;5045428;28;20033;-76
2021/07/03 03:33:03;;;;;;;34.40;23.08;;;16.50;84.90;;;;;;5072945;28;20116;-76
2021/07/03 03:35:29;;;;;;;32.85;22.42;;;16.50;84.80;;;;;;5049038;28;20026;-76
2021/07/03 03:37:54;;;;;;;33.85;23.10;;;16.50;84.90;;;;;;5048257;28;20038;-76
2021/07/03 03:40:20;;;;;;;32.40;22.67;;;16.50;84.90;;;;;;5034496;28;20104;-76
2021/07/03 03:42:47;;;;;;;34.13;22.20;;;16.40;85.00;;;;;;5071382;28;20074;-76
2021/07/03 03:45:14;;;;;;;31.15;21.08;;;16.50;85.10;;;;;;5044551;28;20546;-76
2021/07/03 03:47:39;;;;;;;30.75;21.00;;;16.50;85.10;;;;;;5054315;28;20033;-76
2021/07/03 03:50:06;;;;;;;35.03;22.60;;;16.50;85.10;;;;;;5043794;28;20025;-76
2021/07/03 03:52:31;;;;;;;40.95;23.00;;;16.50;85.10;;;;;;5050873;28;20027;-76
2021/07/03 03:54:57;;;;;;;36.50;23.05;;;16.50;85.00;;;;;;5058175;28;20112;-76
2021/07/03 03:57:29;;;;;;;37.00;23.15;;;16.50;85.00;;;;;;5048148;28;20402;-76
2021/07/03 03:59:56;;;;;;;32.17;20.58;;;16.50;85.00;;;;;;5058439;28;20120;-76
2021/07/03 04:02:23;;;;;;;35.42;23.50;;;16.50;85.00;;;;;;5076164;28;20020;-76
2021/07/03 04:04:51;;;;;;;34.65;24.65;;;16.60;85.10;;;;;;5049290;28;20375;-76
2021/07/03 04:07:20;;;;;;;34.05;22.85;;;16.50;85.20;;;;;;5058350;28;20046;-76
2021/07/03 04:09:46;;;;;;;;;;;16.50;85.50;;;;;;5058463;28;20578;-76
2021/07/03 04:12:14;;;;;;;37.13;24.27;;;16.50;85.30;;;;;;5061334;28;19951;-75
2021/07/03 04:14:39;;;;;;;35.42;23.95;;;16.50;85.70;;;;;;5051660;28;20030;-75
2021/07/03 04:17:05;;;;;;;37.47;23.45;;;16.50;86.40;;;;;;5034814;28;20083;-76
2021/07/03 04:19:32;;;;;;;33.60;22.92;;;16.50;85.80;;;;;;5054260;28;20025;-75
2021/07/03 04:21:58;;;;;;;39.35;23.80;;;16.50;85.80;;;;;;5039780;28;20038;-75
2021/07/03 04:24:24;;;;;;;36.42;24.48;;;16.60;85.80;;;;;;5057394;28;20029;-75
2021/07/03 04:26:50;;;;;;;34.03;22.85;;;16.60;85.80;;;;;;5063375;28;20449;-75
2021/07/03 04:29:16;;;;;;;37.38;25.23;;;16.60;85.80;;;;;;5054635;28;20037;-75
2021/07/03 04:31:42;;;;;;;35.85;23.23;;;16.60;85.80;;;;;;5051340;28;20037;-75
2021/07/03 04:34:07;;;;;;;30.85;21.80;;;16.60;85.70;;;;;;5054369;28;20033;-76
2021/07/03 04:36:33;;;;;;;36.50;23.25;;;16.70;85.80;;;;;;5052535;28;20029;-76
2021/07/03 04:38:59;;;;;;;33.63;23.48;;;16.70;85.80;;;;;;5065453;28;20029;-76
2021/07/03 04:41:24;;;;;;;34.17;23.52;;;16.70;85.80;;;;;;5034575;28;20029;-78
2021/07/03 04:43:50;;;;;;;29.83;20.95;;;16.80;85.80;;;;;;5062885;28;20525;-78
2021/07/03 04:46:16;;;;;;;36.20;22.75;;;16.80;85.70;;;;;;5060661;28;20470;-78
2021/07/03 04:48:41;;;;;;;36.65;22.83;;;16.90;85.80;;;;;;5035820;28;20029;-78
2021/07/03 04:51:07;;;;;;;33.65;21.05;;;16.90;85.80;;;;;;5072864;28;20497;-78
2021/07/03 04:53:33;;;;;;;32.53;21.23;;;16.90;85.80;;;;;;5039990;28;20444;-78
2021/07/03 04:55:58;;;;;;;28.67;19.83;;;16.90;85.80;;;;;;5065809;28;20111;-78
2021/07/03 04:58:24;;;;;;;31.25;21.73;;;17.00;85.80;;;;;;5070328;28;20064;-78
2021/07/03 05:00:49;;;;;;;34.97;21.05;;;17.00;85.70;;;;;;5058036;28;20056;-78
2021/07/03 05:03:15;;;;;;;29.95;20.67;;;17.00;85.70;;;;;;5052926;28;20470;-78
2021/07/03 05:05:41;;;;;;;31.67;21.33;;;17.10;85.80;;;;;;5055752;28;20090;-78
2021/07/03 05:08:06;;;;;;;29.92;20.83;;;17.10;85.80;;;;;;5063597;28;20029;-78
2021/07/03 05:10:32;;;;;;;35.63;21.33;;;17.20;85.90;;;;;;5074440;28;20146;-78
2021/07/03 05:12:57;;;;;;;32.08;22.05;;;17.20;85.70;;;;;;5055813;28;20127;-78
2021/07/03 05:15:23;;;;;;;30.38;20.02;;;17.20;85.40;;;;;;5037838;28;20025;-78
2021/07/03 05:17:49;;;;;;;35.35;21.88;;;17.20;85.40;;;;;;5049255;28;20025;-78
2021/07/03 05:20:17;;;;;;;33.40;20.85;;;17.30;85.50;;;;;;5058396;28;20111;-78
2021/07/03 05:22:43;;;;;;;28.83;20.40;;;17.30;85.50;;;;;;5049581;28;20546;-78
2021/07/03 05:25:10;;;;;;;31.10;21.02;;;17.30;85.50;;;;;;5041004;28;20037;-78
2021/07/03 05:27:35;;;;;;;32.55;19.75;;;17.40;85.60;;;;;;5050038;28;20177;-78
2021/07/03 05:30:02;;;;;;;31.90;20.50;;;17.40;85.50;;;;;;5043226;28;20062;-78
2021/07/03 05:32:28;;;;;;;28.17;19.58;;;17.50;85.50;;;;;;5065817;28;20339;-78
2021/07/03 05:34:54;;;;;;;30.65;18.10;;;17.50;85.90;;;;;;5055043;28;20029;-78
2021/07/03 05:37:19;;;;;;;27.98;19.75;;;17.60;85.20;;;;;;5055775;28;20033;-78
2021/07/03 05:39:45;;;;;;;35.25;21.25;;;17.70;85.00;;;;;;5053370;28;20417;-78
2021/07/03 05:42:10;;;;;;;31.55;20.38;;;17.70;84.90;;;;;;5053359;28;20029;-78
2021/07/03 05:44:36;;;;;;;33.92;20.90;;;17.70;84.90;;;;;;5063585;28;20040;-78
2021/07/03 05:47:02;;;;;;;29.90;19.85;;;17.80;85.00;;;;;;5067750;28;20077;-78
2021/07/03 05:49:27;;;;;;;25.85;18.95;;;17.70;84.70;;;;;;5087725;28;20024;-78
2021/07/03 05:51:53;;;;;;;28.25;18.55;;;17.80;84.70;;;;;;5033797;28;20120;-78
2021/07/03 05:54:19;;;;;;;30.77;18.98;;;17.90;84.60;;;;;;5062961;28;20024;-78
2021/07/03 05:56:46;;;;;;;25.88;18.05;;;18.00;84.40;;;;;;5052625;28;20219;-78
2021/07/03 05:59:12;;;;;;;26.92;19.40;;;18.00;84.20;;;;;;5054742;28;20036;-78
2021/07/03 06:01:38;;;;;;;27.73;17.67;;;18.10;84.40;;;;;;5054517;28;20059;-78
2021/07/03 06:04:04;;;;;;;25.67;17.52;;;18.20;84.30;;;;;;5049688;28;20128;-78
2021/07/03 06:06:30;;;;;;;25.95;17.88;;;18.20;84.20;;;;;;5045210;28;20103;-78
2021/07/03 06:08:56;;;;;;;27.17;17.42;;;18.30;84.20;;;;;;5043698;28;20565;-78
2021/07/03 06:11:22;;;;;;;23.55;17.00;;;18.40;84.00;;;;;;5072640;28;20024;-78
2021/07/03 06:13:47;;;;;;;22.23;15.95;;;18.40;83.70;;;;;;5043958;28;20513;-78
2021/07/03 06:16:13;;;;;;;23.55;15.30;;;18.50;83.40;;;;;;5067511;28;20029;-78
2021/07/03 06:18:39;;;;;;;21.63;16.17;;;18.60;83.40;;;;;;5062398;28;20477;-78
2021/07/03 06:21:05;;;;;;;21.83;15.65;;;18.70;83.20;;;;;;5019349;28;20045;-78
2021/07/03 06:23:30;;;;;;;24.17;15.48;;;18.80;82.90;;;;;;5038835;28;20033;-78
2021/07/03 06:25:59;;;;;;;20.38;14.32;;;18.90;82.70;;;;;;5032674;28;20083;-78
2021/07/03 06:28:26;;;;;;;21.67;14.48;;;19.00;82.50;;;;;;5080914;28;20370;-78
2021/07/03 06:30:52;;;;;;;21.85;14.82;;;19.10;82.20;;;;;;5049236;28;20710;-78
2021/07/03 06:33:17;;;;;;;20.08;13.85;;;19.20;81.90;;;;;;5050305;28;20021;-78
2021/07/03 06:35:43;;;;;;;18.45;14.40;;;19.30;81.60;;;;;;5052400;28;20557;-78
2021/07/03 06:38:09;;;;;;;20.80;13.38;;;19.50;81.30;;;;;;5064372;28;20087;-78
2021/07/03 06:40:34;;;;;;;26.73;12.90;;;19.60;81.00;;;;;;5058050;28;20033;-78
2021/07/03 06:43:00;;;;;;;17.52;12.80;;;19.70;80.80;;;;;;5050138;28;20036;-78
2021/07/03 06:45:26;;;;;;;18.27;12.63;;;19.80;80.40;;;;;;5035265;28;20096;-78
2021/07/03 06:47:51;;;;;;;21.50;12.90;;;19.90;80.00;;;;;;5054222;28;20698;-78
2021/07/03 06:50:17;;;;;;;19.38;13.07;;;20.00;79.50;;;;;;5034206;28;20087;-78
2021/07/03 06:52:43;;;;;;;18.23;12.23;;;20.10;78.80;;;;;;5033129;28;20080;-78
2021/07/03 06:55:09;;;;;;;14.45;11.38;;;20.20;78.60;;;;;;5034595;28;20021;-78
2021/07/03 06:57:34;;;;;;;20.98;13.07;;;20.40;78.30;;;;;;5048425;28;20026;-78
2021/07/03 07:00:00;;;;;;;19.63;12.20;;;20.50;77.70;;;;;;5055727;28;20179;-78
2021/07/03 07:02:26;;;;;;;19.25;11.80;;;20.70;77.40;;;;;;5085775;28;20028;-78
2021/07/03 07:04:51;;;;;;;17.17;10.93;;;20.80;77.00;;;;;;5041272;28;20575;-78
2021/07/03 07:07:17;;;;;;;18.98;12.32;;;20.90;76.30;;;;;;5050519;28;20476;-82
2021/07/03 07:09:42;;;;;;;16.60;10.43;;;21.00;75.60;;;;;;5051394;28;20064;-82
2021/07/03 07:12:09;;;;;;;18.33;10.60;;;21.10;75.40;;;;;;5067478;28;20500;-82
2021/07/03 07:14:36;;;;;;;14.75;10.82;;;21.20;75.40;;;;;;5055056;28;20031;-81
2021/07/03 07:17:02;;;;;;;14.70;10.25;;;21.40;75.10;;;;;;5039639;28;20592;-82
2021/07/03 07:19:28;;;;;;;17.25;10.95;;;21.50;74.40;;;;;;5032818;28;20037;-82
2021/07/03 07:21:53;;;;;;;15.73;10.07;;;21.60;74.10;;;;;;5035840;28;20482;-82
2021/07/03 07:24:22;;;;;;;14.23;10.15;;;21.70;73.70;;;;;;5049718;28;20024;-81
2021/07/03 07:26:48;;;;;;;12.63;9.55;;;21.90;73.70;;;;;;5073854;28;20384;-82
2021/07/03 07:29:14;;;;;;;11.52;8.88;;;22.00;73.30;;;;;;5051151;28;20032;-82
2021/07/03 07:31:40;;;;;;;14.98;9.73;;;22.10;72.70;;;;;;5057771;28;20036;-82
2021/07/03 07:34:06;;;;;;;14.80;9.00;;;22.10;72.30;;;;;;5058725;28;20458;-82
2021/07/03 07:36:31;;;;;;;13.57;9.10;;;22.20;71.80;;;;;;5064786;28;20388;-82
2021/07/03 07:38:57;;;;;;;10.63;8.23;;;22.30;71.90;;;;;;5059403;28;20037;-82
2021/07/03 07:41:23;;;;;;;10.75;7.95;;;22.40;71.30;;;;;;5060309;28;20044;-82
2021/07/03 07:43:49;;;;;;;11.18;8.18;;;22.60;70.80;;;;;;5054026;28;20028;-82
2021/07/03 07:46:14;;;;;;;11.52;8.52;;;22.70;70.30;;;;;;5061812;28;20103;-79
2021/07/03 07:48:41;;;;;;;12.85;8.68;;;22.70;70.30;;;;;;5056620;28;20032;-80
2021/07/03 07:51:07;;;;;;;11.07;8.10;;;22.90;69.70;;;;;;5048644;28;20017;-83
2021/07/03 07:53:33;;;;;;;10.93;8.25;;;23.00;69.30;;;;;;5058833;28;20024;-81
2021/07/03 07:56:00;;;;;;;10.93;8.40;;;23.10;68.40;;;;;;5043077;28;20441;-82
2021/07/03 07:58:26;;;;;;;11.88;8.18;;;23.20;68.70;;;;;;5054705;28;20499;-82
2021/07/03 08:00:52;;;;;;;12.82;7.95;;;23.30;68.90;;;;;;5060427;28;20111;-79
2021/07/03 08:03:18;;;;;;;12.30;7.25;;;23.40;68.80;;;;;;5068036;28;20044;-80
2021/07/03 08:05:44;;;;;;;11.57;8.35;;;23.60;68.70;;;;;;5055376;28;20366;-79
2021/07/03 08:08:09;;;;;;;29.33;14.38;;;23.70;67.70;;;;;;5053167;28;20033;-79
2021/07/03 08:10:40;;;;;;;16.30;9.93;;;23.80;67.50;;;;;;5049575;28;20018;-79
2021/07/03 08:13:06;;;;;;;62.60;17.33;;;23.80;67.10;;;;;;5044330;28;20025;-79
2021/07/03 08:15:32;;;;;;;48.42;15.25;;;24.00;67.30;;;;;;5047457;28;20047;-79
2021/07/03 08:17:59;;;;;;;44.97;12.35;;;24.10;66.70;;;;;;5048839;28;20041;-79
2021/07/03 08:20:25;;;;;;;54.05;13.82;;;24.10;66.40;;;;;;5060318;28;20025;-79
2021/07/03 08:22:52;;;;;;;49.42;12.73;;;24.30;66.70;;;;;;5048188;28;20128;-80
2021/07/03 08:25:19;;;;;;;56.90;11.52;;;24.40;66.20;;;;;;5018104;28;20025;-81
2021/07/03 08:27:46;;;;;;;28.90;10.95;;;24.50;66.10;;;;;;5039607;28;20021;-81
2021/07/03 08:30:13;;;;;;;11.55;7.50;;;24.60;65.30;;;;;;5041321;28;20087;-79
2021/07/03 08:32:39;;;;;;;11.70;6.95;;;24.70;64.40;;;;;;5046395;28;20056;-79
2021/07/03 08:35:06;;;;;;;14.93;8.50;;;24.80;63.50;;;;;;5054549;28;20060;-79
2021/07/03 08:37:31;;;;;;;17.90;7.65;;;24.80;63.00;;;;;;5044723;28;20035;-79
2021/07/03 08:39:57;;;;;;;16.42;7.78;;;25.00;62.90;;;;;;5047365;28;20108;-79
2021/07/03 08:42:23;;;;;;;121.18;18.63;;;25.00;62.80;;;;;;5050281;28;20496;-80
2021/07/03 08:44:50;;;;;;;249.18;32.38;;;25.20;62.30;;;;;;5039926;28;20056;-80
2021/07/03 08:47:18;;;;;;;50.53;11.97;;;25.20;61.70;;;;;;5041273;28;20060;-79
2021/07/03 08:49:53;;;;;;;22.05;7.82;;;25.20;61.90;;;;;;5043181;28;20279;-79
2021/07/03 08:52:19;;;;;;;17.05;7.43;;;25.30;61.60;;;;;;5049494;28;20467;-80
2021/07/03 08:55:03;;;;;;;11.25;6.78;;;25.40;61.20;;;;;;5060493;28;20064;-80
2021/07/03 08:57:31;;;;;;;11.27;6.85;;;25.50;60.80;;;;;;5048271;28;20490;-80
2021/07/03 09:00:00;;;;;;;10.05;5.32;;;25.60;60.40;;;;;;5049945;28;20037;-79
2021/07/03 09:02:37;;;;;;;8.50;5.78;;;25.70;59.60;;;;;;5033156;28;20465;-78
2021/07/03 09:05:07;;;;;;;14.23;5.70;;;25.80;59.10;;;;;;5053780;28;20057;-79
2021/07/03 09:07:34;;;;;;;6.22;4.82;;;25.90;58.60;;;;;;5053798;28;20112;-80
2021/07/03 09:10:03;;;;;;;6.65;5.22;;;26.10;57.70;;;;;;5054860;28;20025;-80
2021/07/03 09:12:37;;;;;;;7.28;5.38;;;26.20;57.20;;;;;;5063589;28;20032;-80
2021/07/03 09:15:15;;;;;;;13.15;5.90;;;26.20;57.20;;;;;;5052645;28;20032;-80
2021/07/03 09:17:54;;;;;;;10.63;5.53;;;26.30;56.50;;;;;;5053809;28;20606;-80
2021/07/03 09:20:37;;;;;;;7.35;5.30;;;26.40;57.30;;;;;;5054012;28;20032;-80
2021/07/03 09:23:14;;;;;;;7.63;5.65;;;26.40;56.80;;;;;;5053877;28;20033;-80
2021/07/03 09:25:44;;;;;;;6.67;4.80;;;26.40;56.90;;;;;;5031692;28;20499;-79
2021/07/03 09:28:16;;;;;;;9.80;5.50;;;26.50;57.20;;;;;;5053720;28;20025;-79
2021/07/03 09:30:44;;;;;;;9.15;5.32;;;26.70;57.10;;;;;;5063338;28;20108;-79
2021/07/03 09:33:10;;;;;;;5.53;4.53;;;26.80;56.50;;;;;;5056204;28;20124;-78
2021/07/03 09:35:36;;;;;;;5.82;4.90;;;26.80;56.20;;;;;;5046294;28;20524;-76
2021/07/03 09:38:07;;;;;;;6.45;5.10;;;26.70;56.10;;;;;;5053405;28;20029;-77
2021/07/03 09:40:35;;;;;;;8.95;4.60;;;26.60;56.60;;;;;;5052865;28;20033;-78
2021/07/03 09:43:09;;;;;;;9.27;5.07;;;26.60;56.70;;;;;;5054195;28;20064;-81
2021/07/03 09:45:37;;;;;;;10.07;5.18;;;26.60;56.50;;;;;;5069904;28;20078;-81
2021/07/03 09:48:11;;;;;;;5.93;4.82;;;26.60;56.30;;;;;;5057315;28;20037;-81
2021/07/03 09:50:39;;;;;;;7.70;5.07;;;26.60;56.60;;;;;;5054588;28;20049;-83
2021/07/03 09:53:06;;;;;;;6.25;5.22;;;26.60;57.30;;;;;;5057305;28;20025;-82
2021/07/03 09:55:34;;;;;;;8.48;4.50;;;26.60;57.30;;;;;;5040199;28;20033;-81
2021/07/03 09:58:00;;;;;;;;;;;26.60;56.90;;;;;;5072267;28;20028;-81
2021/07/03 10:00:26;;;;;;;7.45;4.55;;;26.50;57.40;;;;;;5072656;28;19919;-81
2021/07/03 10:02:52;;;;;;;5.75;4.13;;;26.40;57.00;;;;;;5054831;28;20059;-82
2021/07/03 10:05:21;;;;;;;5.95;4.18;;;26.40;56.90;;;;;;5069793;28;20029;-82
2021/07/03 10:07:48;;;;;;;;;;;26.40;56.90;;;;;;5044309;28;20102;-81
2021/07/03 10:10:18;;;;;;;7.17;5.27;;;26.50;57.20;;;;;;5052479;28;19912;-82
2021/07/03 10:12:50;;;;;;;6.93;5.10;;;26.40;56.70;;;;;;5053310;28;20733;-82
2021/07/03 10:15:31;;;;;;;6.40;4.88;;;26.40;56.50;;;;;;5068521;28;20085;-81
2021/07/03 10:18:21;;;;;;;6.63;4.93;;;26.50;56.10;;;;;;5072627;28;20029;-82
2021/07/03 10:20:49;;;;;;;6.57;4.53;;;26.50;56.40;;;;;;5027821;28;20513;-82
2021/07/03 10:23:15;;;;;;;6.85;4.68;;;26.50;55.90;;;;;;5032861;28;20057;-82
2021/07/03 10:25:44;;;;;;;5.15;4.30;;;26.50;56.10;;;;;;5052210;28;20055;-82
2021/07/03 10:28:13;;;;;;;5.70;4.45;;;26.50;56.00;;;;;;5069887;28;20104;-82
2021/07/03 10:30:41;;;;;;;4.30;3.90;;;26.40;54.90;;;;;;5056650;28;20083;-82
2021/07/03 10:33:17;;;;;;;;;;;26.40;55.10;;;;;;5054164;28;20040;-82
2021/07/03 10:35:55;;;;;;;4.43;4.03;;;26.40;55.30;;;;;;5053436;28;20325;-82
2021/07/03 10:38:20;;;;;;;7.20;4.07;;;26.40;55.70;;;;;;5059994;28;20035;-82
2021/07/03 10:40:48;;;;;;;4.63;4.20;;;26.40;55.50;;;;;;5070416;28;20258;-82
2021/07/03 10:43:14;;;;;;;5.40;4.85;;;26.40;55.10;;;;;;5053321;28;20025;-83
2021/07/03 10:45:49;;;;;;;6.28;4.72;;;26.40;54.70;;;;;;5052107;28;20025;-82
2021/07/03 10:48:24;;;;;;;6.88;6.15;;;26.40;55.10;;;;;;5052694;28;20032;-82
2021/07/03 10:50:51;;;;;;;7.68;5.82;;;26.40;55.20;;;;;;5052109;28;20024;-83
2021/07/03 10:53:29;;;;;;;5.90;5.05;;;26.40;54.80;;;;;;5052128;28;20481;-85
2021/07/03 10:56:08;;;;;;;4.97;4.47;;;26.40;54.20;;;;;;5054972;28;20053;-85
2021/07/03 10:58:37;;;;;;;5.93;4.32;;;26.40;54.20;;;;;;5051917;28;20032;-84
2021/07/03 11:01:12;;;;;;;5.82;4.55;;;26.40;54.70;;;;;;5051772;28;20025;-85
2021/07/03 11:03:44;;;;;;;4.70;3.80;;;26.50;55.20;;;;;;5052910;28;20076;-86
2021/07/03 11:06:21;;;;;;;4.38;3.08;;;26.50;55.00;;;;;;5051957;28;20063;-86
2021/07/03 11:08:48;;;;;;;4.68;3.65;;;26.60;53.90;;;;;;5053154;28;20028;-83
2021/07/03 11:11:15;;;;;;;3.78;3.47;;;26.60;53.30;;;;;;5052971;28;20021;-85
2021/07/03 11:13:44;;;;;;;4.90;3.40;;;26.50;54.40;;;;;;5052993;28;20029;-83
2021/07/03 11:16:15;;;;;;;5.15;3.88;;;26.50;54.90;;;;;;5045897;28;20044;-83
2021/07/03 11:18:43;;;;;;;3.67;3.33;;;26.50;55.10;;;;;;5053190;28;20128;-82
2021/07/03 11:21:12;;;;;;;3.80;3.40;;;26.50;54.90;;;;;;5053078;28;20029;-83
2021/07/03 11:23:38;;;;;;;;;;;26.40;54.50;;;;;;5053272;28;20474;-84
2021/07/03 11:26:12;;;;;;;4.38;3.17;;;26.40;55.20;;;;;;5053091;28;19912;-84
2021/07/03 11:28:39;;;;;;;4.38;3.55;;;26.30;54.70;;;;;;5052962;28;20022;-84
2021/07/03 11:31:05;;;;;;;3.47;3.17;;;26.20;56.10;;;;;;5035312;28;20029;-82
2021/07/03 11:33:32;;;;;;;4.00;3.38;;;26.10;55.60;;;;;;5051796;28;20447;-83
2021/07/03 11:35:59;;;;;;;5.25;3.70;;;26.00;56.90;;;;;;5053037;28;20048;-84
2021/07/03 11:38:26;;;;;;;6.05;3.22;;;25.90;57.80;;;;;;5052767;28;20040;-83
2021/07/03 11:40:58;;;;;;;5.80;3.55;;;25.90;57.60;;;;;;5051611;28;20029;-82
2021/07/03 11:43:24;;;;;;;6.13;3.83;;;25.80;59.80;;;;;;5051536;28;20036;-81
2021/07/03 11:45:54;;;;;;;6.30;3.95;;;25.80;59.80;;;;;;5052723;28;20025;-81
2021/07/03 11:48:22;;;;;;;5.25;3.45;;;25.80;59.00;;;;;;5051434;28;20028;-80
2021/07/03 11:50:57;;;;;;;5.55;3.67;;;25.80;58.70;;;;;;5052914;28;20377;-81
2021/07/03 11:53:25;;;;;;;6.65;3.80;;;25.80;58.80;;;;;;5052630;28;20029;-82
2021/07/03 11:55:53;;;;;;;4.30;3.42;;;25.80;59.70;;;;;;5052650;28;20025;-81
2021/07/03 11:58:26;;;;;;;6.70;3.75;;;25.80;60.00;;;;;;5052798;28;20037;-81
2021/07/03 12:00:58;;;;;;;7.22;4.32;;;25.80;60.00;;;;;;5051318;28;20025;-81
2021/07/03 12:03:36;;;;;;;5.35;3.17;;;25.80;59.30;;;;;;5052358;28;20549;-81
2021/07/03 12:06:04;;;;;;;11.60;3.67;;;25.70;60.10;;;;;;5052510;28;20043;-81
2021/07/03 12:08:38;;;;;;;6.75;3.60;;;25.70;60.70;;;;;;5056991;28;20028;-80
2021/07/03 12:11:06;;;;;;;8.50;3.85;;;25.70;61.90;;;;;;5064271;28;20072;-81
2021/07/03 12:13:36;;;;;;;11.70;4.30;;;25.70;62.50;;;;;;5067095;28;20025;-82
2021/07/03 12:16:04;;;;;;;7.70;4.00;;;25.80;61.40;;;;;;5043782;28;20025;-81
2021/07/03 12:18:35;;;;;;;4.22;3.67;;;25.80;61.30;;;;;;5041882;28;20181;-82
2021/07/03 12:21:13;;;;;;;5.72;4.20;;;25.80;60.70;;;;;;5059227;28;20025;-82
2021/07/03 12:23:51;;;;;;;4.95;4.03;;;25.80;59.50;;;;;;5035865;28;20071;-82
2021/07/03 12:26:37;;;;;;;7.35;3.88;;;25.80;60.30;;;;;;5043078;28;20096;-82
2021/07/03 12:29:14;;;;;;;7.95;4.25;;;25.70;61.00;;;;;;5074915;28;20552;-81
2021/07/03 12:31:45;;;;;;;6.47;5.15;;;25.60;60.80;;;;;;5047176;28;20028;-82
2021/07/03 12:34:27;;;;;;;6.07;4.30;;;25.60;61.70;;;;;;5041730;28;20036;-83
2021/07/03 12:37:03;;;;;;;7.00;3.72;;;25.50;62.50;;;;;;5042058;28;20029;-83